createdAt,value
2018-09-01T00:01:50.043Z,96052.00
2018-09-01T00:04:20.356Z,96054.00
2018-09-01T00:06:50.583Z,96054.00
2018-09-01T00:09:21.006Z,96050.00
2018-09-01T00:11:51.312Z,96046.00
2018-09-01T00:14:21.542Z,96041.00
2018-09-01T00:16:51.819Z,96050.00
2018-09-01T00:19:22.132Z,96048.00
2018-09-01T00:21:52.484Z,96050.00
2018-09-01T00:24:22.709Z,96051.00
2018-09-01T00:26:53.269Z,96048.00
2018-09-01T00:29:24.139Z,96048.00
2018-09-01T00:31:54.370Z,96050.00
2018-09-01T00:34:24.548Z,96058.00
2018-09-01T00:36:54.709Z,96062.00
2018-09-01T00:39:24.908Z,96061.00
2018-09-01T00:41:55.087Z,96059.00
2018-09-01T00:44:25.607Z,96056.00
2018-09-01T00:46:55.960Z,96059.00
2018-09-01T00:49:26.729Z,96049.00
2018-09-01T00:51:56.981Z,96055.00
2018-09-01T00:54:27.462Z,96052.00
2018-09-01T00:56:57.704Z,96054.00
2018-09-01T00:59:28.274Z,96067.00
2018-09-01T01:01:58.516Z,96071.00
2018-09-01T01:04:28.771Z,96069.00
2018-09-01T01:07:00.672Z,96067.00
2018-09-01T01:09:30.858Z,96059.00
2018-09-01T01:12:01.819Z,96055.00
2018-09-01T01:14:32.165Z,96053.00
2018-09-01T01:17:02.623Z,96061.00
2018-09-01T01:19:33.032Z,96071.00
2018-09-01T01:22:04.517Z,96069.00
2018-09-01T01:24:34.906Z,96067.00
2018-09-01T01:27:05.273Z,96064.00
2018-09-01T01:29:35.640Z,96061.00
2018-09-01T01:32:06.658Z,96062.00
2018-09-01T01:34:37.052Z,96061.00
2018-09-01T01:37:07.681Z,96061.00
2018-09-01T01:39:37.964Z,96058.00
2018-09-01T01:42:08.281Z,96055.00
2018-09-01T01:44:38.586Z,96058.00
2018-09-01T01:47:08.770Z,96063.00
2018-09-01T01:49:39.380Z,96066.00
2018-09-01T01:52:09.699Z,96066.00
2018-09-01T01:54:39.984Z,96064.00
2018-09-01T01:57:10.356Z,96065.00
2018-09-01T01:59:40.729Z,96063.00
2018-09-01T02:02:11.094Z,96063.00
2018-09-01T02:04:41.424Z,96060.00
2018-09-01T02:07:11.671Z,96054.00
2018-09-01T02:09:42.644Z,96054.00
2018-09-01T02:12:12.803Z,96052.00
2018-09-01T02:14:43.043Z,96047.00
2018-09-01T02:17:13.776Z,96052.00
2018-09-01T02:19:44.051Z,96058.00
2018-09-01T02:22:14.397Z,96057.00
2018-09-01T02:24:44.832Z,96057.00
2018-09-01T02:27:15.110Z,96058.00
2018-09-01T02:29:45.408Z,96063.00
2018-09-01T02:32:15.512Z,96067.00
2018-09-01T02:34:46.457Z,96070.00
2018-09-01T02:37:16.909Z,96070.00
2018-09-01T02:39:47.333Z,96069.00
2018-09-01T02:42:17.537Z,96063.00
2018-09-01T02:44:47.856Z,96070.00
2018-09-01T02:47:18.484Z,96067.00
2018-09-01T02:49:48.793Z,96072.00
2018-09-01T02:52:19.484Z,96066.00
2018-09-01T02:54:49.728Z,96059.00
2018-09-01T02:57:20.030Z,96065.00
2018-09-01T02:59:50.447Z,96073.00
2018-09-01T03:02:56.468Z,96074.00
2018-09-01T03:05:27.125Z,96070.00
2018-09-01T03:07:58.013Z,96074.00
2018-09-01T03:10:28.373Z,96072.00
2018-09-01T03:12:58.732Z,96073.00
2018-09-01T03:15:28.884Z,96082.00
2018-09-01T03:17:59.104Z,96086.00
2018-09-01T03:20:30.862Z,96097.00
2018-09-01T03:23:02.674Z,96098.00
2018-09-01T03:25:35.569Z,96094.00
2018-09-01T03:28:06.327Z,96086.00
2018-09-01T03:30:36.758Z,96086.00
2018-09-01T03:33:07.752Z,96090.00
2018-09-01T03:35:40.345Z,96089.00
2018-09-01T03:38:12.897Z,96087.00
2018-09-01T03:40:43.104Z,96096.00
2018-09-01T03:43:13.886Z,96087.00
2018-09-01T03:45:44.151Z,96091.00
2018-09-01T03:48:14.745Z,96092.00
2018-09-01T03:50:44.976Z,96097.00
2018-09-01T03:53:15.792Z,96097.00
2018-09-01T03:55:46.093Z,96096.00
2018-09-01T03:58:16.449Z,96099.00
2018-09-01T04:00:47.038Z,96104.00
2018-09-01T04:03:17.828Z,96103.00
2018-09-01T04:05:48.428Z,96108.00
2018-09-01T04:08:18.632Z,96108.00
2018-09-01T04:10:48.876Z,96103.00
2018-09-01T04:13:19.147Z,96105.00
2018-09-01T04:15:49.687Z,96104.00
2018-09-01T04:18:20.292Z,96108.00
2018-09-01T04:20:50.476Z,96105.00
2018-09-01T04:23:20.825Z,96106.00
2018-09-01T04:25:51.058Z,96103.00
2018-09-01T04:28:21.251Z,96109.00
2018-09-01T04:30:51.772Z,96104.00
2018-09-01T04:33:21.923Z,96103.00
2018-09-01T04:35:52.366Z,96111.00
2018-09-01T04:38:22.551Z,96116.00
2018-09-01T04:40:53.033Z,96116.00
2018-09-01T04:43:23.442Z,96112.00
2018-09-01T04:45:53.787Z,96112.00
2018-09-01T04:48:24.109Z,96114.00
2018-09-01T04:50:54.395Z,96118.00
2018-09-01T04:53:24.721Z,96121.00
2018-09-01T04:55:55.132Z,96123.00
2018-09-01T04:58:25.543Z,96130.00
2018-09-01T05:00:56.054Z,96128.00
2018-09-01T05:03:26.646Z,96127.00
2018-09-01T05:05:56.887Z,96126.00
2018-09-01T05:08:27.237Z,96121.00
2018-09-01T05:10:57.434Z,96116.00
2018-09-01T05:13:27.791Z,96123.00
2018-09-01T05:15:58.315Z,96129.00
2018-09-01T05:18:28.636Z,96132.00
2018-09-01T05:20:58.940Z,96132.00
2018-09-01T05:23:29.369Z,96137.00
2018-09-01T05:26:05.268Z,96137.00
2018-09-01T05:28:37.696Z,96140.00
2018-09-01T05:31:09.594Z,96142.00
2018-09-01T05:33:40.025Z,96145.00
2018-09-01T05:36:10.627Z,96145.00
2018-09-01T05:38:48.636Z,96148.00
2018-09-01T05:41:19.016Z,96142.00
2018-09-01T05:43:49.354Z,96142.00
2018-09-01T05:46:19.529Z,96139.00
2018-09-01T05:48:49.743Z,96139.00
2018-09-01T05:51:36.918Z,96149.00
2018-09-01T05:54:13.040Z,96153.00
2018-09-01T05:56:43.316Z,96150.00
2018-09-01T05:59:13.848Z,96151.00
2018-09-01T06:01:44.208Z,96155.00
2018-09-01T06:04:14.426Z,96150.00
2018-09-01T06:06:45.054Z,96157.00
2018-09-01T06:09:15.384Z,96156.00
2018-09-01T06:11:45.904Z,96163.00
2018-09-01T06:14:16.361Z,96161.00
2018-09-01T06:16:47.683Z,96155.00
2018-09-01T06:19:22.832Z,96156.00
2018-09-01T06:21:53.757Z,96161.00
2018-09-01T06:24:24.462Z,96155.00
2018-09-01T06:26:55.197Z,96157.00
2018-09-01T06:29:26.359Z,96160.00
2018-09-01T06:31:59.649Z,96165.00
2018-09-01T06:34:29.938Z,96165.00
2018-09-01T06:37:00.178Z,96164.00
2018-09-01T06:39:30.557Z,96164.00
2018-09-01T06:42:01.597Z,96161.00
2018-09-01T06:44:32.168Z,96170.00
2018-09-01T06:47:03.640Z,96169.00
2018-09-01T06:49:38.902Z,96161.00
2018-09-01T06:52:10.013Z,96159.00
2018-09-01T06:54:40.411Z,96165.00
2018-09-01T06:57:10.722Z,96164.00
2018-09-01T06:59:41.266Z,96165.00
2018-09-01T07:02:12.421Z,96172.00
2018-09-01T07:04:42.928Z,96169.00
2018-09-01T07:07:13.284Z,96167.00
2018-09-01T07:09:43.593Z,96170.00
2018-09-01T07:12:13.720Z,96168.00
2018-09-01T07:14:43.884Z,96173.00
2018-09-01T07:17:14.087Z,96170.00
2018-09-01T07:19:44.353Z,96173.00
2018-09-01T07:22:15.142Z,96173.00
2018-09-01T07:24:45.498Z,96171.00
2018-09-01T07:27:15.916Z,96170.00
2018-09-01T07:29:45.989Z,96173.00
2018-09-01T07:32:16.742Z,96176.00
2018-09-01T07:34:47.164Z,96179.00
2018-09-01T07:37:17.723Z,96179.00
2018-09-01T07:39:48.181Z,96179.00
2018-09-01T07:42:18.435Z,96180.00
2018-09-01T07:44:48.896Z,96185.00
2018-09-01T07:47:19.651Z,96184.00
2018-09-01T07:49:49.958Z,96185.00
2018-09-01T07:52:20.319Z,96187.00
2018-09-01T07:54:50.695Z,96189.00
2018-09-01T07:57:20.821Z,96181.00
2018-09-01T07:59:52.233Z,96186.00
2018-09-01T08:02:22.415Z,96193.00
2018-09-01T08:04:52.587Z,96186.00
2018-09-01T08:07:22.925Z,96187.00
2018-09-01T08:09:53.142Z,96190.00
2018-09-01T08:12:23.423Z,96190.00
2018-09-01T08:14:53.791Z,96185.00
2018-09-01T08:17:24.045Z,96181.00
2018-09-01T08:19:54.767Z,96180.00
2018-09-01T08:22:25.188Z,96188.00
2018-09-01T08:24:56.206Z,96183.00
2018-09-01T08:27:26.377Z,96190.00
2018-09-01T08:29:58.291Z,96192.00
2018-09-01T08:32:28.822Z,96197.00
2018-09-01T08:34:59.091Z,96196.00
2018-09-01T08:37:29.220Z,96198.00
2018-09-01T08:39:59.479Z,96200.00
2018-09-01T08:42:30.228Z,96212.00
2018-09-01T08:45:00.864Z,96208.00
2018-09-01T08:47:31.752Z,96198.00
2018-09-01T08:50:02.155Z,96208.00
2018-09-01T08:52:32.537Z,96204.00
2018-09-01T08:55:03.517Z,96198.00
2018-09-01T08:57:34.283Z,96203.00
2018-09-01T09:00:06.337Z,96201.00
2018-09-01T09:02:36.937Z,96204.00
2018-09-01T09:05:07.636Z,96201.00
2018-09-01T09:07:38.115Z,96206.00
2018-09-01T09:10:08.398Z,96204.00
2018-09-01T09:12:38.533Z,96203.00
2018-09-01T09:15:13.784Z,96209.00
2018-09-01T09:17:44.820Z,96206.00
2018-09-01T09:20:23.001Z,96213.00
2018-09-01T09:23:03.012Z,96210.00
2018-09-01T09:25:33.261Z,96210.00
2018-09-01T09:28:05.132Z,96204.00
2018-09-01T09:30:35.769Z,96211.00
2018-09-01T09:33:06.782Z,96210.00
2018-09-01T09:35:38.993Z,96208.00
2018-09-01T09:38:10.875Z,96219.00
2018-09-01T09:40:41.283Z,96212.00
2018-09-01T09:43:13.441Z,96216.00
2018-09-01T09:45:43.891Z,96216.00
2018-09-01T09:48:16.336Z,96213.00
2018-09-01T09:50:46.704Z,96218.00
2018-09-01T09:53:19.328Z,96215.00
2018-09-01T09:55:49.686Z,96216.00
2018-09-01T09:58:20.701Z,96218.00
2018-09-01T10:00:55.982Z,96207.00
2018-09-01T10:03:27.640Z,96212.00
2018-09-01T10:05:57.993Z,96209.00
2018-09-01T10:08:30.024Z,96213.00
2018-09-01T10:11:00.404Z,96214.00
2018-09-01T10:13:32.792Z,96216.00
2018-09-01T10:16:03.393Z,96208.00
2018-09-01T10:18:33.713Z,96213.00
2018-09-01T10:21:04.119Z,96211.00
2018-09-01T10:23:34.342Z,96209.00
2018-09-01T10:26:05.151Z,96209.00
2018-09-01T10:28:35.399Z,96198.00
2018-09-01T10:31:05.777Z,96215.00
2018-09-01T10:33:36.004Z,96210.00
2018-09-01T10:36:06.365Z,96201.00
2018-09-01T10:38:36.897Z,96204.00
2018-09-01T10:41:07.362Z,96201.00
2018-09-01T10:43:38.124Z,96204.00
2018-09-01T10:46:08.787Z,96203.00
2018-09-01T10:48:39.167Z,96208.00
2018-09-01T10:51:09.501Z,96207.00
2018-09-01T10:53:39.700Z,96209.00
2018-09-01T10:56:10.144Z,96198.00
2018-09-01T10:58:40.642Z,96207.00
2018-09-01T11:01:10.959Z,96204.00
2018-09-01T11:03:41.342Z,96216.00
2018-09-01T11:06:11.873Z,96208.00
2018-09-01T11:08:42.041Z,96207.00
2018-09-01T11:11:12.225Z,96203.00
2018-09-01T11:13:44.236Z,96215.00
2018-09-01T11:16:15.697Z,96212.00
2018-09-01T11:18:46.145Z,96210.00
2018-09-01T11:21:16.317Z,96210.00
2018-09-01T11:23:46.810Z,96208.00
2018-09-01T11:26:17.057Z,96211.00
2018-09-01T11:28:48.318Z,96211.00
2018-09-01T11:31:18.592Z,96210.00
2018-09-01T11:33:49.151Z,96213.00
2018-09-01T11:36:19.387Z,96212.00
2018-09-01T11:38:52.496Z,96207.00
2018-09-01T11:41:22.971Z,96209.00
2018-09-01T11:43:54.790Z,96210.00
2018-09-01T11:46:25.557Z,96206.00
2018-09-01T11:48:56.324Z,96212.00
2018-09-01T11:51:26.703Z,96207.00
2018-09-01T11:53:57.232Z,96212.00
2018-09-01T11:56:28.165Z,96216.00
2018-09-01T11:58:58.670Z,96218.00
2018-09-01T12:01:28.875Z,96217.00
2018-09-01T12:03:59.162Z,96221.00
2018-09-01T12:06:29.343Z,96218.00
2018-09-01T12:08:59.910Z,96222.00
2018-09-01T12:11:30.795Z,96220.00
2018-09-01T12:14:01.414Z,96225.00
2018-09-01T12:16:31.804Z,96232.00
2018-09-01T12:19:01.981Z,96232.00
2018-09-01T12:21:32.154Z,96236.00
2018-09-01T12:24:02.598Z,96231.00
2018-09-01T12:26:32.795Z,96229.00
2018-09-01T12:29:03.303Z,96228.00
2018-09-01T12:31:33.667Z,96224.00
2018-09-01T12:34:04.360Z,96222.00
2018-09-01T12:36:34.719Z,96221.00
2018-09-01T12:39:05.619Z,96218.00
2018-09-01T12:41:35.724Z,96224.00
2018-09-01T12:44:05.907Z,96223.00
2018-09-01T12:46:36.019Z,96212.00
2018-09-01T12:49:06.443Z,96220.00
2018-09-01T12:51:36.612Z,96218.00
2018-09-01T12:54:06.855Z,96217.00
2018-09-01T12:56:37.311Z,96222.00
2018-09-01T12:59:07.655Z,96220.00
2018-09-01T13:01:37.839Z,96216.00
2018-09-01T13:04:08.142Z,96214.00
2018-09-01T13:06:38.916Z,96217.00
2018-09-01T13:09:09.335Z,96212.00
2018-09-01T13:11:39.633Z,96214.00
2018-09-01T13:14:09.775Z,96209.00
2018-09-01T13:16:40.149Z,96203.00
2018-09-01T13:19:10.372Z,96206.00
2018-09-01T13:21:41.194Z,96211.00
2018-09-01T13:24:11.428Z,96204.00
2018-09-01T13:26:44.121Z,96205.00
2018-09-01T13:29:14.801Z,96206.00
2018-09-01T13:31:45.033Z,96208.00
2018-09-01T13:34:15.484Z,96207.00
2018-09-01T13:36:45.745Z,96208.00
2018-09-01T13:39:16.060Z,96204.00
2018-09-01T13:41:46.411Z,96211.00
2018-09-01T13:44:16.736Z,96213.00
2018-09-01T13:46:46.991Z,96212.00
2018-09-01T13:49:17.355Z,96210.00
2018-09-01T13:51:47.601Z,96203.00
2018-09-01T13:54:17.860Z,96201.00
2018-09-01T13:56:48.281Z,96210.00
2018-09-01T13:59:18.582Z,96209.00
2018-09-01T14:01:48.832Z,96204.00
2018-09-01T14:04:18.951Z,96208.00
2018-09-01T14:06:49.146Z,96211.00
2018-09-01T14:09:19.317Z,96201.00
2018-09-01T14:11:49.648Z,96203.00
2018-09-01T14:14:20.008Z,96202.00
2018-09-01T14:16:50.271Z,96211.00
2018-09-01T14:19:20.531Z,96209.00
2018-09-01T14:21:51.013Z,96214.00
2018-09-01T14:24:21.299Z,96207.00
2018-09-01T14:26:51.563Z,96201.00
2018-09-01T14:29:21.634Z,96199.00
2018-09-01T14:31:52.038Z,96195.00
2018-09-01T14:34:22.641Z,96197.00
2018-09-01T14:36:52.956Z,96189.00
2018-09-01T14:39:23.239Z,96190.00
2018-09-01T14:41:53.598Z,96195.00
2018-09-01T14:44:24.153Z,96196.00
2018-09-01T14:46:54.433Z,96195.00
2018-09-01T14:49:24.648Z,96191.00
2018-09-01T14:51:55.015Z,96193.00
2018-09-01T14:54:25.266Z,96197.00
2018-09-01T14:56:56.026Z,96192.00
2018-09-01T14:59:26.301Z,96193.00
2018-09-01T15:01:56.950Z,96192.00
2018-09-01T15:04:27.209Z,96191.00
2018-09-01T15:06:57.654Z,96196.00
2018-09-01T15:09:27.886Z,96203.00
2018-09-01T15:11:58.212Z,96203.00
2018-09-01T15:14:28.465Z,96202.00
2018-09-01T15:16:58.825Z,96202.00
2018-09-01T15:19:29.180Z,96204.00
2018-09-01T15:21:59.525Z,96207.00
2018-09-01T15:24:29.777Z,96209.00
2018-09-01T15:27:00.077Z,96208.00
2018-09-01T15:29:30.439Z,96205.00
2018-09-01T15:32:01.304Z,96201.00
2018-09-01T15:34:32.408Z,96206.00
2018-09-01T15:37:02.645Z,96213.00
2018-09-01T15:39:32.816Z,96218.00
2018-09-01T15:42:04.053Z,96212.00
2018-09-01T15:44:34.388Z,96215.00
2018-09-01T15:47:04.644Z,96224.00
2018-09-01T15:49:34.888Z,96222.00
2018-09-01T15:52:05.596Z,96227.00
2018-09-01T15:54:35.839Z,96230.00
2018-09-01T15:57:06.210Z,96229.00
2018-09-01T15:59:36.405Z,96226.00
2018-09-01T16:02:06.804Z,96230.00
2018-09-01T16:04:37.005Z,96228.00
2018-09-01T16:07:08.488Z,96234.00
2018-09-01T16:09:39.274Z,96237.00
2018-09-01T16:12:10.065Z,96237.00
2018-09-01T16:14:40.211Z,96233.00
2018-09-01T16:17:10.751Z,96238.00
2018-09-01T16:19:40.863Z,96245.00
2018-09-01T16:22:11.155Z,96243.00
2018-09-01T16:24:41.455Z,96246.00
2018-09-01T16:27:11.667Z,96233.00
2018-09-01T16:29:41.873Z,96239.00
2018-09-01T16:32:12.243Z,96234.00
2018-09-01T16:34:42.572Z,96237.00
2018-09-01T16:37:12.678Z,96232.00
2018-09-01T16:39:43.390Z,96234.00
2018-09-01T16:42:13.613Z,96228.00
2018-09-01T16:44:44.394Z,96229.00
2018-09-01T16:47:14.559Z,96227.00
2018-09-01T16:49:44.716Z,96229.00
2018-09-01T16:52:15.220Z,96230.00
2018-09-01T16:54:46.619Z,96231.00
2018-09-01T16:57:18.124Z,96229.00
2018-09-01T16:59:49.730Z,96231.00
2018-09-01T17:02:24.860Z,96235.00
2018-09-01T17:04:59.336Z,96233.00
2018-09-01T17:07:31.527Z,96235.00
2018-09-01T17:10:03.260Z,96233.00
2018-09-01T17:12:35.295Z,96233.00
2018-09-01T17:15:06.150Z,96234.00
2018-09-01T17:17:37.739Z,96237.00
2018-09-01T17:20:12.589Z,96242.00
2018-09-01T17:22:48.685Z,96241.00
2018-09-01T17:25:22.035Z,96243.00
2018-09-01T17:27:53.102Z,96252.00
2018-09-01T17:30:23.468Z,96254.00
2018-09-01T17:32:55.060Z,96256.00
2018-09-01T17:38:22.504Z,96252.00
2018-09-01T17:40:57.844Z,96249.00
2018-09-01T17:43:28.003Z,96248.00
2018-09-01T17:45:58.449Z,96258.00
2018-09-01T17:48:28.705Z,96254.00
2018-09-01T17:50:59.008Z,96256.00
2018-09-01T17:53:29.716Z,96255.00
2018-09-01T17:56:00.004Z,96257.00
2018-09-01T17:58:30.964Z,96261.00
2018-09-01T18:01:01.660Z,96261.00
2018-09-01T18:03:31.987Z,96269.00
2018-09-01T18:06:02.897Z,96268.00
2018-09-01T18:08:33.358Z,96272.00
2018-09-01T18:11:04.038Z,96265.00
2018-09-01T18:13:34.619Z,96263.00
2018-09-01T18:16:05.152Z,96262.00
2018-09-01T18:18:36.897Z,96259.00
2018-09-01T18:21:07.301Z,96254.00
2018-09-01T18:23:39.497Z,96256.00
2018-09-01T18:26:10.547Z,96257.00
2018-09-01T18:28:40.963Z,96260.00
2018-09-01T18:31:14.030Z,96258.00
2018-09-01T18:33:46.352Z,96256.00
2018-09-01T18:36:16.599Z,96249.00
2018-09-01T18:38:46.715Z,96266.00
2018-09-01T18:41:17.025Z,96262.00
2018-09-01T18:43:47.298Z,96265.00
2018-09-01T18:46:17.591Z,96264.00
2018-09-01T18:48:50.269Z,96264.00
2018-09-01T18:51:20.733Z,96264.00
2018-09-01T18:53:51.346Z,96269.00
2018-09-01T18:56:22.483Z,96273.00
2018-09-01T18:58:53.328Z,96274.00
2018-09-01T19:01:23.561Z,96276.00
2018-09-01T19:03:55.535Z,96274.00
2018-09-01T19:06:26.080Z,96273.00
2018-09-01T19:08:56.164Z,96272.00
2018-09-01T19:11:26.528Z,96273.00
2018-09-01T19:13:56.982Z,96267.00
2018-09-01T19:16:27.049Z,96267.00
2018-09-01T19:18:57.976Z,96262.00
2018-09-01T19:21:28.728Z,96265.00
2018-09-01T19:23:58.931Z,96263.00
2018-09-01T19:26:33.451Z,96263.00
2018-09-01T19:29:03.844Z,96267.00
2018-09-01T19:31:35.119Z,96264.00
2018-09-01T19:34:07.546Z,96264.00
2018-09-01T19:36:40.904Z,96262.00
2018-09-01T19:39:13.825Z,96264.00
2018-09-01T19:41:46.608Z,96267.00
2018-09-01T19:44:17.700Z,96264.00
2018-09-01T19:46:47.820Z,96259.00
2018-09-01T19:49:18.004Z,96262.00
2018-09-01T19:51:49.854Z,96258.00
2018-09-01T19:54:20.219Z,96256.00
2018-09-01T19:56:53.901Z,96259.00
2018-09-01T19:59:24.272Z,96258.00
2018-09-01T20:01:55.556Z,96252.00
2018-09-01T20:04:25.837Z,96254.00
2018-09-01T20:06:56.088Z,96253.00
2018-09-01T20:09:26.744Z,96256.00
2018-09-01T20:11:56.879Z,96252.00
2018-09-01T20:14:27.484Z,96256.00
2018-09-01T20:16:57.697Z,96254.00
2018-09-01T20:19:28.401Z,96258.00
2018-09-01T20:21:59.044Z,96260.00
2018-09-01T20:24:34.448Z,96260.00
2018-09-01T20:27:05.925Z,96265.00
2018-09-01T20:29:36.106Z,96268.00
2018-09-01T20:32:08.730Z,96271.00
2018-09-01T20:34:44.234Z,96277.00
2018-09-01T20:37:17.939Z,96271.00
2018-09-01T20:39:49.789Z,96265.00
2018-09-01T20:42:20.564Z,96262.00
2018-09-01T20:44:51.543Z,96255.00
2018-09-01T20:47:22.525Z,96251.00
2018-09-01T20:49:53.920Z,96248.00
2018-09-01T20:52:24.232Z,96250.00
2018-09-01T20:54:57.229Z,96247.00
2018-09-01T20:57:27.819Z,96239.00
2018-09-01T21:00:01.019Z,96240.00
2018-09-01T21:02:32.219Z,96246.00
2018-09-01T21:05:02.774Z,96245.00
2018-09-01T21:07:33.152Z,96246.00
2018-09-01T21:10:03.649Z,96238.00
2018-09-01T21:12:34.030Z,96230.00
2018-09-01T21:15:08.054Z,96232.00
2018-09-01T21:17:39.091Z,96234.00
2018-09-01T21:20:09.687Z,96239.00
2018-09-01T21:22:39.993Z,96238.00
2018-09-01T21:25:10.180Z,96242.00
2018-09-01T21:27:40.553Z,96234.00
2018-09-01T21:30:10.945Z,96238.00
2018-09-01T21:32:41.300Z,96234.00
2018-09-01T21:35:11.591Z,96237.00
2018-09-01T21:37:42.060Z,96240.00
2018-09-01T21:40:12.229Z,96243.00
2018-09-01T21:42:42.893Z,96247.00
2018-09-01T21:45:14.152Z,96238.00
2018-09-01T21:47:44.491Z,96245.00
2018-09-01T21:50:14.685Z,96246.00
2018-09-01T21:52:45.006Z,96241.00
2018-09-01T21:55:15.527Z,96242.00
2018-09-01T21:57:46.093Z,96239.00
2018-09-01T22:00:16.528Z,96239.00
2018-09-01T22:02:46.776Z,96237.00
2018-09-01T22:05:23.843Z,96232.00
2018-09-01T22:07:54.228Z,96235.00
2018-09-01T22:10:24.548Z,96231.00
2018-09-01T22:12:54.890Z,96231.00
2018-09-01T22:15:25.191Z,96239.00
2018-09-01T22:17:55.409Z,96243.00
2018-09-01T22:20:25.654Z,96248.00
2018-09-01T22:22:56.571Z,96245.00
2018-09-01T22:25:26.812Z,96239.00
2018-09-01T22:27:57.093Z,96229.00
2018-09-01T22:30:31.871Z,96233.00
2018-09-01T22:33:03.048Z,96235.00
2018-09-01T22:35:33.794Z,96231.00
2018-09-01T22:38:06.322Z,96230.00
2018-09-01T22:40:40.472Z,96228.00
2018-09-01T22:43:14.404Z,96226.00
2018-09-01T22:45:44.675Z,96221.00
2018-09-01T22:48:19.982Z,96230.00
2018-09-01T22:50:50.345Z,96225.00
2018-09-01T22:53:20.617Z,96223.00
2018-09-01T22:55:51.419Z,96229.00
2018-09-01T22:58:21.606Z,96227.00
2018-09-01T23:00:51.896Z,96231.00
2018-09-01T23:03:22.024Z,96231.00
2018-09-01T23:05:52.290Z,96227.00
2018-09-01T23:08:22.484Z,96233.00
2018-09-01T23:10:52.883Z,96232.00
2018-09-01T23:13:23.180Z,96243.00
2018-09-01T23:15:53.567Z,96239.00
2018-09-01T23:18:23.709Z,96238.00
2018-09-01T23:20:54.144Z,96241.00
2018-09-01T23:23:24.551Z,96244.00
2018-09-01T23:25:55.028Z,96247.00
2018-09-01T23:28:25.293Z,96251.00
2018-09-01T23:30:55.435Z,96257.00
2018-09-01T23:33:25.746Z,96261.00
2018-09-01T23:35:56.273Z,96253.00
2018-09-01T23:38:26.579Z,96252.00
2018-09-01T23:40:57.170Z,96255.00
2018-09-01T23:43:27.494Z,96253.00
2018-09-01T23:45:57.901Z,96254.00
2018-09-01T23:48:28.166Z,96255.00
2018-09-01T23:50:58.336Z,96255.00
2018-09-01T23:53:28.596Z,96259.00
2018-09-01T23:55:58.946Z,96253.00
2018-09-01T23:58:29.312Z,96246.00
